Time;durP1;ratioP1;P1;durP2;ratioP2;P2;SDS_P1;SDS_P2;PMS_P1;PMS_P2;Temp;Humidity;BMP_temperature;BMP_pressure;BME280_temperature;BME280_humidity;BME280_pressure;Samples;Min_cycle;Max_cycle;Signal;HPM_P1;HPM_P2
2022/12/11 00:00:59;;;;;;;9.00;6.50;;;-4.40;99.90;;;;;;494686;240;28071;-65
2022/12/11 00:03:00;;;;;;;9.25;7.25;;;-4.40;99.90;;;;;;494617;240;27537;-63
2022/12/11 00:05:02;;;;;;;8.70;6.45;;;-4.30;99.90;;;;;;494697;240;27518;-64
2022/12/11 00:07:03;;;;;;;10.05;6.75;;;-4.30;99.90;;;;;;494685;239;27576;-67
2022/12/11 00:09:04;;;;;;;9.55;7.20;;;-4.20;99.90;;;;;;494679;240;27480;-64
2022/12/11 00:11:05;;;;;;;8.65;6.35;;;-4.10;99.90;;;;;;494703;240;27544;-64
2022/12/11 00:13:07;;;;;;;11.25;7.32;;;-4.10;99.90;;;;;;494669;240;27538;-63
2022/12/11 00:15:08;;;;;;;9.43;6.65;;;-4.10;99.90;;;;;;494691;240;27917;-63
2022/12/11 00:17:09;;;;;;;8.25;6.22;;;-4.00;99.90;;;;;;494639;240;29058;-66
2022/12/11 00:19:10;;;;;;;9.93;6.50;;;-4.00;99.90;;;;;;495134;236;27571;-63
2022/12/11 00:21:12;;;;;;;10.43;7.40;;;-4.00;99.90;;;;;;501381;236;27452;-63
2022/12/11 00:23:13;;;;;;;10.27;7.22;;;-4.00;99.90;;;;;;496629;236;27486;-62
2022/12/11 00:25:14;;;;;;;11.15;7.85;;;-3.90;99.90;;;;;;494651;240;27444;-63
2022/12/11 00:27:15;;;;;;;12.02;7.90;;;-3.80;99.90;;;;;;494670;240;27497;-65
2022/12/11 00:29:17;;;;;;;15.68;9.55;;;-3.70;99.90;;;;;;494635;240;27537;-63
2022/12/11 00:31:18;;;;;;;11.27;8.00;;;-3.60;99.90;;;;;;494699;240;27995;-63
2022/12/11 00:33:20;;;;;;;11.82;7.78;;;;;;;;;;497076;236;29868;-63
2022/12/11 00:35:22;;;;;;;14.87;8.57;;;-3.60;99.90;;;;;;503014;236;26826;-66
2022/12/11 00:37:23;;;;;;;9.70;7.32;;;-3.50;99.90;;;;;;502194;237;27361;-63
2022/12/11 00:39:24;;;;;;;11.88;7.70;;;-3.40;99.90;;;;;;502195;237;27868;-67
2022/12/11 00:41:27;;;;;;;13.50;8.30;;;;;;;;;;502217;237;28569;-64
2022/12/11 00:43:28;;;;;;;16.45;8.25;;;-3.40;99.90;;;;;;502165;237;27136;-65
2022/12/11 00:45:30;;;;;;;11.65;8.27;;;;;;;;;;502230;237;27357;-64
2022/12/11 00:47:33;;;;;;;13.32;8.35;;;;;;;;;;502210;237;26768;-63
2022/12/11 00:49:35;;;;;;;16.90;9.65;;;;;;;;;;502137;237;27189;-64
2022/12/11 00:51:36;;;;;;;12.02;7.75;;;-3.30;99.90;;;;;;502205;237;26814;-63
2022/12/11 00:53:38;;;;;;;13.85;8.95;;;-3.20;99.90;;;;;;502145;237;27368;-63
2022/12/11 00:55:39;;;;;;;16.23;10.55;;;-3.20;99.90;;;;;;502186;237;27345;-64
2022/12/11 00:57:41;;;;;;;15.50;8.70;;;;;;;;;;502190;237;27860;-63
2022/12/11 00:59:43;;;;;;;15.23;9.45;;;-3.20;99.90;;;;;;502191;237;26731;-65
2022/12/11 01:01:45;;;;;;;12.90;8.35;;;;;;;;;;502195;237;27364;-63
2022/12/11 01:03:46;;;;;;;16.00;10.00;;;-3.20;99.90;;;;;;502366;236;27012;-66
2022/12/11 01:05:47;;;;;;;18.45;11.23;;;-3.20;99.90;;;;;;503241;236;27526;-63
2022/12/11 01:07:50;;;;;;;16.45;10.55;;;;;;;;;;503149;236;27146;-64
2022/12/11 01:12:13;;;;;;;18.05;10.60;;;;;;;;;;503161;236;26692;-63
2022/12/11 01:14:15;;;;;;;17.73;10.20;;;;;;;;;;503155;236;26980;-64
2022/12/11 01:16:18;;;;;;;18.70;10.63;;;;;;;;;;503142;236;26603;-63
2022/12/11 01:18:20;;;;;;;15.55;9.43;;;;;;;;;;503139;236;27317;-64
2022/12/11 01:20:23;;;;;;;13.43;9.57;;;;;;;;;;503156;236;26581;-63
2022/12/11 01:22:24;;;;;;;16.52;10.07;;;-3.00;99.90;;;;;;503154;236;26588;-63
2022/12/11 01:24:27;;;;;;;15.38;9.80;;;;;;;;;;503374;236;27124;-64
2022/12/11 01:26:29;;;;;;;18.12;10.15;;;;;;;;;;502322;236;28119;-66
2022/12/11 01:28:31;;;;;;;17.48;10.13;;;;;;;;;;502553;236;26480;-63
2022/12/11 01:30:33;;;;;;;14.25;10.23;;;-2.80;99.90;;;;;;503102;236;26622;-63
2022/12/11 01:32:34;;;;;;;15.38;9.57;;;-2.70;99.90;;;;;;503138;236;27096;-63
2022/12/11 01:34:35;;;;;;;17.50;10.45;;;-2.70;99.90;;;;;;502577;236;28700;-66
2022/12/11 01:36:36;;;;;;;19.52;11.07;;;-2.70;99.90;;;;;;503176;236;28688;-63
2022/12/11 01:38:38;;;;;;;16.80;9.57;;;-2.70;99.90;;;;;;503160;236;27026;-64
2022/12/11 01:40:39;;;;;;;17.35;10.00;;;-2.70;99.90;;;;;;503143;236;27130;-69
2022/12/11 01:42:42;;;;;;;13.90;9.27;;;;;;;;;;503094;236;27091;-64
2022/12/11 01:44:43;;;;;;;15.18;9.73;;;-2.70;99.90;;;;;;502988;236;27179;-63
2022/12/11 01:46:44;;;;;;;15.55;9.50;;;-2.70;99.90;;;;;;494681;240;27205;-63
2022/12/11 01:48:46;;;;;;;18.80;10.73;;;;;;;;;;494716;240;27034;-67
2022/12/11 01:50:49;;;;;;;15.23;10.02;;;;;;;;;;494653;239;27308;-63
2022/12/11 01:52:51;;;;;;;13.88;10.10;;;;;;;;;;494684;239;26685;-67
2022/12/11 01:54:53;;;;;;;16.70;10.50;;;-2.70;99.90;;;;;;494680;239;26565;-63
2022/12/11 01:56:54;;;;;;;15.70;9.85;;;-2.60;99.90;;;;;;494695;240;27262;-65
2022/12/11 01:58:58;;;;;;;16.08;8.95;;;;;;;;;;494694;240;27061;-63
2022/12/11 02:00:59;;;;;;;15.82;9.32;;;;;;;;;;494603;240;27118;-64
2022/12/11 02:03:00;;;;;;;17.83;10.27;;;-2.60;99.90;;;;;;494696;239;26626;-64
2022/12/11 02:05:01;;;;;;;16.75;10.20;;;-2.50;99.90;;;;;;498397;236;27661;-63
2022/12/11 02:07:04;;;;;;;16.50;10.18;;;;;;;;;;503208;236;27718;-63
2022/12/11 02:09:05;;;;;;;17.23;10.57;;;-2.50;99.90;;;;;;503192;236;26580;-64
2022/12/11 02:11:06;;;;;;;17.33;10.05;;;-2.50;99.90;;;;;;503122;236;27253;-64
2022/12/11 02:13:07;;;;;;;16.23;10.43;;;-2.50;99.90;;;;;;503151;236;27674;-64
2022/12/11 02:15:09;;;;;;;14.98;10.07;;;-2.50;99.90;;;;;;502405;236;27707;-64
2022/12/11 02:17:10;;;;;;;18.42;10.32;;;-2.50;99.90;;;;;;503284;236;27266;-67
2022/12/11 02:19:11;;;;;;;17.62;11.60;;;-2.50;99.90;;;;;;502198;237;27134;-63
2022/12/11 02:21:12;;;;;;;17.85;11.55;;;-2.50;99.90;;;;;;502854;236;27189;-64
2022/12/11 02:23:14;;;;;;;16.95;10.68;;;-2.40;99.90;;;;;;503218;236;27094;-63
2022/12/11 02:25:15;;;;;;;22.20;11.73;;;-2.50;99.90;;;;;;503164;236;27570;-64
2022/12/11 02:27:16;;;;;;;17.70;11.57;;;-2.50;99.90;;;;;;503196;236;27621;-66
2022/12/11 02:29:17;;;;;;;18.33;11.43;;;-2.50;99.90;;;;;;503157;236;26996;-64
2022/12/11 02:31:19;;;;;;;17.83;11.48;;;-2.40;99.90;;;;;;503169;236;27033;-64
2022/12/11 02:33:20;;;;;;;18.95;11.35;;;-2.50;99.90;;;;;;503178;236;27307;-63
2022/12/11 02:35:21;;;;;;;19.45;11.15;;;-2.40;99.90;;;;;;503011;236;27447;-63
2022/12/11 02:37:23;;;;;;;19.42;11.88;;;-2.50;99.90;;;;;;502657;236;26950;-66
2022/12/11 02:39:24;;;;;;;22.67;12.20;;;-2.40;99.90;;;;;;503625;236;27559;-64
2022/12/11 02:41:25;;;;;;;22.00;12.35;;;-2.40;99.90;;;;;;503586;236;27160;-65
2022/12/11 02:43:26;;;;;;;21.35;11.48;;;-2.40;99.90;;;;;;503636;236;27140;-63
2022/12/11 02:45:28;;;;;;;23.35;11.50;;;-2.40;99.90;;;;;;503551;236;27300;-64
2022/12/11 02:47:29;;;;;;;21.73;12.07;;;-2.40;99.90;;;;;;503491;236;27262;-64
2022/12/11 02:49:30;;;;;;;21.42;12.57;;;-2.40;99.90;;;;;;503651;236;27030;-63
2022/12/11 02:51:31;;;;;;;28.02;13.80;;;-2.40;99.90;;;;;;503197;236;27259;-64
2022/12/11 02:53:33;;;;;;;22.73;13.88;;;-2.40;99.90;;;;;;503225;236;27837;-68
2022/12/11 02:55:34;;;;;;;25.42;13.50;;;-2.40;99.90;;;;;;503122;236;27680;-63
2022/12/11 02:57:35;;;;;;;27.15;13.05;;;-2.40;99.90;;;;;;503159;236;27458;-65
2022/12/11 02:59:38;;;;;;;27.67;13.10;;;;;;;;;;503143;236;27352;-63
2022/12/11 03:01:39;;;;;;;23.92;12.57;;;-2.40;99.90;;;;;;503133;236;27203;-63
2022/12/11 03:03:40;;;;;;;25.20;13.93;;;-2.30;99.90;;;;;;503161;236;27349;-64
2022/12/11 03:05:41;;;;;;;27.92;13.98;;;-2.30;99.90;;;;;;503018;236;27234;-66
2022/12/11 03:07:43;;;;;;;28.90;13.85;;;-2.30;99.90;;;;;;502640;236;27037;-63
2022/12/11 03:09:44;;;;;;;26.95;13.82;;;-2.30;99.90;;;;;;503298;236;27092;-64
2022/12/11 03:11:45;;;;;;;26.65;12.32;;;-2.30;99.90;;;;;;503612;236;27137;-69
2022/12/11 03:13:47;;;;;;;25.23;12.95;;;-2.30;99.90;;;;;;503641;236;27036;-64
2022/12/11 03:15:48;;;;;;;26.45;14.10;;;-2.30;99.90;;;;;;503643;236;27217;-64
2022/12/11 03:17:49;;;;;;;27.87;14.65;;;-2.30;99.90;;;;;;503646;236;27720;-63
2022/12/11 03:19:51;;;;;;;30.65;13.90;;;-2.30;99.90;;;;;;503588;236;27899;-64
2022/12/11 03:21:52;;;;;;;34.70;15.80;;;-2.30;99.90;;;;;;503617;236;27469;-66
2022/12/11 03:23:53;;;;;;;31.20;14.75;;;-2.30;99.90;;;;;;503620;236;27444;-64
2022/12/11 03:25:54;;;;;;;29.00;13.18;;;-2.30;99.90;;;;;;503610;236;27366;-65
2022/12/11 03:27:56;;;;;;;28.23;13.75;;;-2.30;99.90;;;;;;503610;236;27382;-63
2022/12/11 03:29:57;;;;;;;31.02;13.80;;;-2.30;99.90;;;;;;503607;236;27375;-63
2022/12/11 03:31:58;;;;;;;28.23;13.90;;;-2.30;99.90;;;;;;503605;236;27473;-66
2022/12/11 03:33:59;;;;;;;35.38;16.62;;;-2.30;99.90;;;;;;503591;236;28025;-63
2022/12/11 03:36:01;;;;;;;28.58;16.30;;;-2.30;99.90;;;;;;503624;236;29137;-64
2022/12/11 03:38:02;;;;;;;26.55;14.43;;;-2.30;99.90;;;;;;503088;236;27343;-63
2022/12/11 03:40:03;;;;;;;31.62;14.90;;;-2.20;99.90;;;;;;502618;236;27356;-63
2022/12/11 03:42:04;;;;;;;32.40;15.10;;;-2.20;99.90;;;;;;502189;237;27400;-67
2022/12/11 03:44:06;;;;;;;27.00;14.57;;;-2.20;99.90;;;;;;502213;237;27230;-63
2022/12/11 03:46:07;;;;;;;30.23;15.38;;;-2.20;99.90;;;;;;502188;237;27363;-64
2022/12/11 03:48:08;;;;;;;35.92;16.77;;;-2.20;99.90;;;;;;502204;237;27984;-64
2022/12/11 03:50:09;;;;;;;38.33;16.67;;;-2.20;99.90;;;;;;502227;237;27215;-63
2022/12/11 03:52:11;;;;;;;28.05;14.00;;;-2.20;99.90;;;;;;502186;237;27315;-66
2022/12/11 03:54:12;;;;;;;34.95;15.52;;;-2.20;99.90;;;;;;502204;237;27353;-63
2022/12/11 03:56:13;;;;;;;37.25;16.48;;;-2.20;99.90;;;;;;502193;237;27176;-64
2022/12/11 03:58:14;;;;;;;30.92;15.23;;;-2.20;99.90;;;;;;502227;237;27663;-68
2022/12/11 04:00:16;;;;;;;29.83;15.40;;;-2.20;99.90;;;;;;502190;237;27480;-64
2022/12/11 04:02:17;;;;;;;30.55;15.38;;;-2.20;99.90;;;;;;502182;237;28777;-64
2022/12/11 04:04:18;;;;;;;32.50;14.65;;;-2.10;99.90;;;;;;502222;237;27142;-64
2022/12/11 04:06:19;;;;;;;35.33;16.27;;;-2.10;99.90;;;;;;502207;236;27067;-64
2022/12/11 04:08:21;;;;;;;33.92;15.80;;;-2.10;99.90;;;;;;502702;236;27175;-63
2022/12/11 04:10:22;;;;;;;37.40;15.55;;;-2.10;99.90;;;;;;502233;237;27200;-63
2022/12/11 04:12:23;;;;;;;27.92;14.73;;;-2.10;99.90;;;;;;502774;236;27693;-64
2022/12/11 04:16:44;;;;;;;29.10;15.30;;;-2.10;99.90;;;;;;503536;236;27257;-63
2022/12/11 04:25:44;;;;;;;28.10;14.10;;;-2.10;99.90;;;;;;502174;237;27237;-64
2022/12/11 04:27:48;;;;;;;28.67;14.00;;;-2.00;99.90;;;;;;502166;237;27269;-68
2022/12/11 04:29:50;;;;;;;28.67;15.10;;;-2.10;99.90;;;;;;502207;237;27189;-64
2022/12/11 04:31:51;;;;;;;30.62;14.73;;;-2.00;99.90;;;;;;502160;237;27053;-64
2022/12/11 04:33:52;;;;;;;31.77;14.48;;;-2.00;99.90;;;;;;502213;237;27129;-63
2022/12/11 04:35:53;;;;;;;28.77;13.80;;;-2.00;99.90;;;;;;502208;237;27551;-67
2022/12/11 04:37:55;;;;;;;29.50;13.90;;;-2.10;99.90;;;;;;502792;236;27838;-63
2022/12/11 04:39:56;;;;;;;26.60;13.40;;;-2.00;99.90;;;;;;503593;236;27256;-63
2022/12/11 04:41:57;;;;;;;27.13;13.80;;;-2.00;99.90;;;;;;503389;236;27496;-63
2022/12/11 04:43:59;;;;;;;29.60;14.48;;;-2.00;99.90;;;;;;502195;237;27414;-64
2022/12/11 04:46:00;;;;;;;23.52;12.43;;;-2.00;99.90;;;;;;502194;237;27294;-68
2022/12/11 04:48:01;;;;;;;23.15;12.75;;;-1.90;99.90;;;;;;501990;236;27016;-64
2022/12/11 04:50:02;;;;;;;27.45;14.35;;;-2.00;99.90;;;;;;502066;237;28903;-64
2022/12/11 04:52:04;;;;;;;27.35;12.90;;;-2.00;99.90;;;;;;502135;237;27264;-63
2022/12/11 04:54:05;;;;;;;28.42;13.65;;;-2.00;99.90;;;;;;502183;237;27260;-63
2022/12/11 04:56:06;;;;;;;31.83;14.95;;;-1.90;99.90;;;;;;502188;237;27501;-63
2022/12/11 04:58:07;;;;;;;31.12;14.52;;;-1.90;99.90;;;;;;502184;237;27299;-63
2022/12/11 05:00:09;;;;;;;29.70;14.10;;;-1.90;99.90;;;;;;502195;237;27268;-65
2022/12/11 05:02:10;;;;;;;23.45;12.75;;;-1.90;99.90;;;;;;502150;237;27829;-64
2022/12/11 05:04:11;;;;;;;32.10;15.27;;;-1.90;99.90;;;;;;502183;237;27784;-64
2022/12/11 05:06:12;;;;;;;25.70;12.07;;;-1.90;99.90;;;;;;502472;236;27129;-67
2022/12/11 05:08:14;;;;;;;27.98;13.68;;;-1.90;99.90;;;;;;498344;236;27263;-64
2022/12/11 05:10:15;;;;;;;28.05;11.35;;;-1.90;99.90;;;;;;501235;236;27500;-66
2022/12/11 05:12:16;;;;;;;26.27;11.85;;;-1.90;99.90;;;;;;502849;236;27216;-63
2022/12/11 05:14:17;;;;;;;26.17;12.35;;;-1.90;99.90;;;;;;500384;236;27849;-63
2022/12/11 05:16:19;;;;;;;25.35;12.52;;;-1.90;99.90;;;;;;495699;238;28931;-67
2022/12/11 05:18:20;;;;;;;25.88;12.13;;;-1.90;99.90;;;;;;494613;240;27312;-63
2022/12/11 05:20:21;;;;;;;23.62;11.93;;;-1.90;99.90;;;;;;494670;240;27204;-65
2022/12/11 05:22:22;;;;;;;24.73;12.05;;;-1.90;99.90;;;;;;494653;240;27361;-65
2022/12/11 05:24:24;;;;;;;25.98;11.93;;;-1.90;99.90;;;;;;494685;240;27256;-63
2022/12/11 05:26:25;;;;;;;24.65;11.40;;;-1.90;99.90;;;;;;494663;240;27632;-67
2022/12/11 05:28:26;;;;;;;25.55;12.45;;;-1.80;99.90;;;;;;494683;240;28787;-64
2022/12/11 05:30:28;;;;;;;25.50;11.10;;;-1.80;99.90;;;;;;494700;240;27487;-64
2022/12/11 05:32:29;;;;;;;23.35;11.73;;;-1.80;99.90;;;;;;494653;240;27251;-63
2022/12/11 05:34:30;;;;;;;22.35;10.32;;;-1.80;99.90;;;;;;494692;240;27249;-63
2022/12/11 05:36:31;;;;;;;22.50;10.93;;;-1.80;99.90;;;;;;494689;240;27404;-67
2022/12/11 05:38:33;;;;;;;25.77;11.40;;;-1.80;99.90;;;;;;496621;236;27082;-63
2022/12/11 05:40:34;;;;;;;25.73;11.93;;;-1.80;99.90;;;;;;501117;236;27794;-64
2022/12/11 05:42:35;;;;;;;21.87;11.88;;;-1.90;99.90;;;;;;499700;236;27779;-63
2022/12/11 05:44:36;;;;;;;24.90;10.93;;;-1.90;99.90;;;;;;498150;236;27419;-65
2022/12/11 05:46:38;;;;;;;25.33;11.60;;;-1.80;99.90;;;;;;496682;237;26999;-67
2022/12/11 05:48:39;;;;;;;27.50;11.10;;;-1.90;99.90;;;;;;495718;236;27345;-63
2022/12/11 05:50:40;;;;;;;25.25;11.20;;;-1.80;99.90;;;;;;488500;235;27448;-65
2022/12/11 05:52:41;;;;;;;25.98;11.20;;;-1.80;99.90;;;;;;485730;244;28576;-63
2022/12/11 05:54:43;;;;;;;21.08;10.55;;;-1.80;99.90;;;;;;481069;242;27888;-65
2022/12/11 05:56:44;;;;;;;22.00;11.00;;;-1.80;99.90;;;;;;479491;248;27211;-65
2022/12/11 05:58:45;;;;;;;27.23;12.07;;;-1.80;99.90;;;;;;480522;247;27472;-65
2022/12/11 06:00:46;;;;;;;24.52;11.57;;;-1.80;99.90;;;;;;467868;244;27318;-64
2022/12/11 06:02:48;;;;;;;21.75;10.85;;;-1.80;99.90;;;;;;470117;253;27433;-63
2022/12/11 06:04:49;;;;;;;24.63;11.10;;;-1.80;99.90;;;;;;486860;244;27985;-64
2022/12/11 06:06:50;;;;;;;25.12;11.40;;;-1.80;99.90;;;;;;469652;253;29037;-66
2022/12/11 06:08:52;;;;;;;25.27;12.60;;;-1.80;99.90;;;;;;486806;244;27362;-63
2022/12/11 06:10:53;;;;;;;21.15;10.43;;;-1.80;99.90;;;;;;485410;240;27371;-63
2022/12/11 06:12:54;;;;;;;25.12;11.10;;;-1.70;99.90;;;;;;465415;251;27457;-63
2022/12/11 06:14:55;;;;;;;29.70;11.90;;;-1.70;99.90;;;;;;472463;249;27507;-64
2022/12/11 06:16:56;;;;;;;24.92;11.43;;;-1.70;99.90;;;;;;469972;253;27463;-65
2022/12/11 06:18:58;;;;;;;23.30;10.50;;;-1.70;99.90;;;;;;468596;253;27982;-63
2022/12/11 06:20:59;;;;;;;23.45;10.80;;;-1.70;99.90;;;;;;469936;253;28039;-64
2022/12/11 06:23:00;;;;;;;25.20;11.20;;;-1.70;99.90;;;;;;468597;253;27465;-68
2022/12/11 06:25:02;;;;;;;27.02;12.20;;;-1.70;99.90;;;;;;469967;253;27469;-64
2022/12/11 06:27:03;;;;;;;23.40;10.77;;;-1.70;99.90;;;;;;467274;253;27452;-65
2022/12/11 06:29:04;;;;;;;24.85;11.75;;;-1.70;99.90;;;;;;468560;253;27614;-63
2022/12/11 06:31:05;;;;;;;29.75;11.30;;;-1.70;99.90;;;;;;469971;253;28001;-63
2022/12/11 06:33:07;;;;;;;26.67;12.02;;;-1.70;99.90;;;;;;468634;254;27315;-67
2022/12/11 06:35:08;;;;;;;29.77;12.80;;;-1.60;99.90;;;;;;469960;253;27519;-63
2022/12/11 06:37:10;;;;;;;28.67;12.35;;;-1.60;99.90;;;;;;469787;249;27541;-65
2022/12/11 06:39:11;;;;;;;25.35;11.10;;;-1.60;99.90;;;;;;474000;245;27400;-64
2022/12/11 06:41:12;;;;;;;24.87;11.70;;;-1.60;99.90;;;;;;469801;253;27525;-64
2022/12/11 06:43:13;;;;;;;27.00;12.68;;;-1.60;99.90;;;;;;484404;244;27359;-67
2022/12/11 06:45:14;;;;;;;26.08;12.02;;;-1.60;99.90;;;;;;483433;244;27407;-64
2022/12/11 06:47:16;;;;;;;23.77;11.05;;;-1.60;99.90;;;;;;469369;251;27682;-64
2022/12/11 06:49:17;;;;;;;30.37;12.45;;;-1.60;99.90;;;;;;470118;252;27667;-64
2022/12/11 06:51:18;;;;;;;26.30;11.20;;;-1.70;99.90;;;;;;486917;244;27250;-63
2022/12/11 06:53:19;;;;;;;26.12;12.05;;;-1.70;99.90;;;;;;486854;244;27207;-65
2022/12/11 06:55:21;;;;;;;29.45;12.70;;;-1.60;99.90;;;;;;473270;249;27959;-63
2022/12/11 06:57:22;;;;;;;25.58;11.93;;;-1.60;99.90;;;;;;473296;250;29002;-64
2022/12/11 06:59:23;;;;;;;22.67;11.48;;;-1.60;99.90;;;;;;473256;250;27534;-66
2022/12/11 07:01:25;;;;;;;27.10;13.20;;;-1.60;99.90;;;;;;473254;250;27109;-63
2022/12/11 07:03:26;;;;;;;22.23;11.32;;;-1.50;99.90;;;;;;473293;250;27564;-66
2022/12/11 07:05:27;;;;;;;27.92;12.57;;;-1.50;99.90;;;;;;473239;250;28437;-63
2022/12/11 07:07:29;;;;;;;28.77;12.00;;;-1.50;99.90;;;;;;473282;250;28027;-64
2022/12/11 07:09:30;;;;;;;29.63;12.43;;;-1.50;99.90;;;;;;473108;251;27602;-68
2022/12/11 07:11:31;;;;;;;30.62;13.07;;;-1.50;99.90;;;;;;472409;250;27386;-64
2022/12/11 07:13:32;;;;;;;24.05;11.80;;;-1.50;99.90;;;;;;472968;250;27250;-64
2022/12/11 07:15:33;;;;;;;26.20;12.50;;;-1.50;99.90;;;;;;472540;251;27675;-63
2022/12/11 07:17:35;;;;;;;26.77;12.75;;;-1.50;99.90;;;;;;470824;250;28066;-64
2022/12/11 07:19:36;;;;;;;22.73;11.35;;;-1.50;99.90;;;;;;471495;251;28955;-65
2022/12/11 07:21:37;;;;;;;29.05;13.13;;;-1.50;99.90;;;;;;471996;251;27212;-63
2022/12/11 07:23:39;;;;;;;25.77;12.30;;;-1.50;99.90;;;;;;471431;250;27371;-65
2022/12/11 07:25:40;;;;;;;24.40;12.27;;;-1.50;99.90;;;;;;471688;250;27432;-65
2022/12/11 07:27:41;;;;;;;25.60;11.98;;;-1.50;99.90;;;;;;470610;250;27404;-63
2022/12/11 07:29:43;;;;;;;23.08;11.82;;;-1.50;99.90;;;;;;472782;251;27417;-65
2022/12/11 07:31:44;;;;;;;24.42;11.85;;;-1.50;99.90;;;;;;467813;251;27936;-64
2022/12/11 07:33:45;;;;;;;25.50;11.30;;;-1.50;99.90;;;;;;473231;250;27328;-63
2022/12/11 07:35:46;;;;;;;23.23;11.45;;;-1.50;99.90;;;;;;472012;250;27423;-67
2022/12/11 07:37:47;;;;;;;25.98;12.93;;;-1.50;99.90;;;;;;473071;250;27432;-64
2022/12/11 07:39:49;;;;;;;24.55;12.13;;;-1.50;99.90;;;;;;470239;251;27222;-65
2022/12/11 07:41:50;;;;;;;23.25;11.60;;;-1.50;99.90;;;;;;470095;250;27443;-64
2022/12/11 07:43:51;;;;;;;26.55;12.45;;;-1.50;99.90;;;;;;486833;244;27933;-64
2022/12/11 07:45:52;;;;;;;24.67;12.48;;;-1.50;99.90;;;;;;486820;244;27889;-69
2022/12/11 07:47:54;;;;;;;28.10;13.77;;;-1.50;99.90;;;;;;473278;251;27297;-63
2022/12/11 07:49:55;;;;;;;24.80;12.63;;;-1.50;99.90;;;;;;473226;250;27585;-64
2022/12/11 07:51:56;;;;;;;23.00;12.43;;;-1.50;99.90;;;;;;473288;250;27450;-64
2022/12/11 07:53:57;;;;;;;30.75;13.13;;;-1.60;99.90;;;;;;473248;250;27693;-64
2022/12/11 07:55:59;;;;;;;25.80;12.95;;;-1.60;99.90;;;;;;473256;250;27782;-67
2022/12/11 07:58:00;;;;;;;24.63;12.37;;;-1.60;99.90;;;;;;473275;250;29000;-64
2022/12/11 08:00:01;;;;;;;26.25;12.80;;;-1.50;99.90;;;;;;473242;250;27674;-66
2022/12/11 08:02:03;;;;;;;22.40;12.37;;;-1.40;99.90;;;;;;473232;251;29110;-68
2022/12/11 08:04:04;;;;;;;23.35;11.98;;;-1.40;99.90;;;;;;473270;250;27605;-68
2022/12/11 08:06:05;;;;;;;24.95;11.90;;;-1.40;99.90;;;;;;473255;250;27642;-65
2022/12/11 08:08:06;;;;;;;22.77;11.10;;;-1.40;99.90;;;;;;473276;250;27524;-63
2022/12/11 08:10:08;;;;;;;24.15;11.82;;;-1.40;99.90;;;;;;473259;250;27655;-64
2022/12/11 08:12:09;;;;;;;25.37;12.52;;;-1.40;99.90;;;;;;473261;250;27468;-66
2022/12/11 08:14:10;;;;;;;26.27;12.80;;;-1.40;99.90;;;;;;473291;250;28111;-63
2022/12/11 08:16:12;;;;;;;26.37;12.32;;;-1.30;99.90;;;;;;473254;250;27647;-64
2022/12/11 08:18:13;;;;;;;25.02;11.85;;;-1.40;99.90;;;;;;473284;250;27600;-63
2022/12/11 08:20:14;;;;;;;20.37;11.27;;;-1.40;99.90;;;;;;473259;250;27527;-63
2022/12/11 08:22:15;;;;;;;20.67;10.88;;;-1.30;99.90;;;;;;473234;250;27311;-67
2022/12/11 08:24:19;;;;;;;21.70;9.90;;;-1.30;99.90;;;;;;473253;250;28990;-64
2022/12/11 08:26:18;;;;;;;19.37;9.85;;;-1.30;99.90;;;;;;473100;251;27567;-64
2022/12/11 08:28:19;;;;;;;18.92;11.15;;;-1.30;99.90;;;;;;473266;250;27524;-63
2022/12/11 08:30:20;;;;;;;22.50;11.32;;;-1.30;99.90;;;;;;474268;247;27527;-64
2022/12/11 08:32:22;;;;;;;23.05;11.25;;;-1.30;99.90;;;;;;480514;247;28882;-68
2022/12/11 08:34:23;;;;;;;21.73;11.65;;;-1.40;99.90;;;;;;480627;247;29155;-66
2022/12/11 08:36:24;;;;;;;24.65;11.45;;;-1.30;99.90;;;;;;480649;246;27542;-65
2022/12/11 08:38:25;;;;;;;22.58;11.40;;;-1.20;99.90;;;;;;480691;247;27492;-63
2022/12/11 08:40:27;;;;;;;19.50;10.55;;;-1.20;99.90;;;;;;480669;247;27482;-64
2022/12/11 08:42:28;;;;;;;23.48;11.38;;;-1.20;99.90;;;;;;480680;247;27643;-66
2022/12/11 08:44:29;;;;;;;23.75;11.60;;;-1.20;99.90;;;;;;480683;247;27949;-64
2022/12/11 08:46:30;;;;;;;18.58;9.65;;;-1.20;99.90;;;;;;480686;247;29227;-66
2022/12/11 08:48:32;;;;;;;25.02;12.20;;;-1.10;99.90;;;;;;480641;247;27499;-63
2022/12/11 08:50:33;;;;;;;22.00;11.15;;;-1.20;99.90;;;;;;480714;247;27485;-64
2022/12/11 08:52:34;;;;;;;23.90;11.93;;;-1.30;99.90;;;;;;480662;246;27617;-67
2022/12/11 08:54:35;;;;;;;23.02;11.02;;;-1.20;99.90;;;;;;480663;247;27411;-63
2022/12/11 08:56:37;;;;;;;21.42;11.27;;;-1.20;99.90;;;;;;480693;247;27531;-64
2022/12/11 08:58:38;;;;;;;23.73;12.48;;;-1.10;99.90;;;;;;480666;247;28775;-63
2022/12/11 09:00:39;;;;;;;27.23;12.30;;;-1.10;99.90;;;;;;480049;247;28148;-65
2022/12/11 09:02:40;;;;;;;22.60;11.18;;;-1.10;99.90;;;;;;471673;251;27701;-67
2022/12/11 09:04:42;;;;;;;24.00;12.45;;;-1.10;99.90;;;;;;473317;247;27411;-64
2022/12/11 09:06:44;;;;;;;18.95;10.60;;;-1.10;99.90;;;;;;476706;247;28023;-64
2022/12/11 09:08:45;;;;;;;19.35;11.15;;;-1.00;99.90;;;;;;472680;247;27567;-64
2022/12/11 09:10:46;;;;;;;23.30;11.70;;;-1.00;99.90;;;;;;482816;244;27480;-76
2022/12/11 09:12:48;;;;;;;23.70;12.37;;;-0.90;99.90;;;;;;482666;239;27372;-78
2022/12/11 09:14:49;;;;;;;19.42;11.70;;;-1.00;99.90;;;;;;482916;244;27613;-78
2022/12/11 09:16:50;;;;;;;22.30;11.55;;;-1.00;99.90;;;;;;481663;241;27544;-77
2022/12/11 09:18:52;;;;;;;18.87;10.57;;;-1.00;99.90;;;;;;483003;242;28265;-79
2022/12/11 09:22:55;;;;;;;18.98;10.68;;;-0.90;99.90;;;;;;477857;248;27610;-69
2022/12/11 09:24:56;;;;;;;21.17;11.65;;;-0.90;99.90;;;;;;480497;244;28169;-69
2022/12/11 09:26:58;;;;;;;22.48;10.60;;;-1.00;99.90;;;;;;481463;244;28106;-64
2022/12/11 09:31:00;;;;;;;19.27;10.97;;;-0.90;99.90;;;;;;469179;242;27481;-64
2022/12/11 09:33:01;;;;;;;25.85;11.63;;;-0.90;99.90;;;;;;465421;253;27515;-68
2022/12/11 09:35:02;;;;;;;25.62;12.27;;;-0.90;99.90;;;;;;471089;249;27481;-65
2022/12/11 09:37:03;;;;;;;19.30;10.52;;;-0.90;99.90;;;;;;466777;249;27517;-65
2022/12/11 09:39:05;;;;;;;20.45;10.70;;;-0.90;99.90;;;;;;466254;252;27560;-63
2022/12/11 09:41:06;;;;;;;21.40;10.25;;;-0.90;99.90;;;;;;475275;247;27406;-63
2022/12/11 09:43:07;;;;;;;20.10;10.15;;;-0.90;99.90;;;;;;475146;247;28013;-66
2022/12/11 09:45:09;;;;;;;18.70;9.77;;;-0.80;99.90;;;;;;475333;247;27428;-72
2022/12/11 09:47:10;;;;;;;17.75;9.88;;;-0.70;99.90;;;;;;489196;242;27472;-65
2022/12/11 09:49:11;;;;;;;21.05;11.43;;;-0.70;99.90;;;;;;491193;241;27624;-63
2022/12/11 09:51:12;;;;;;;19.00;9.95;;;-0.70;99.90;;;;;;491344;241;27560;-64
2022/12/11 09:53:15;;;;;;;19.05;10.10;;;-0.60;99.90;;;;;;484484;241;27513;-68
2022/12/11 09:55:15;;;;;;;24.17;10.88;;;-0.70;99.90;;;;;;478910;246;27395;-64
2022/12/11 09:57:17;;;;;;;22.33;11.77;;;-0.80;99.90;;;;;;479387;247;27949;-63
2022/12/11 09:59:17;;;;;;;24.73;12.40;;;-0.70;99.90;;;;;;478991;245;27797;-65
2022/12/11 10:01:19;;;;;;;20.52;10.68;;;-0.70;99.90;;;;;;477125;244;27349;-65
2022/12/11 10:03:20;;;;;;;19.80;10.45;;;-0.70;99.90;;;;;;476078;246;27498;-66
2022/12/11 10:05:21;;;;;;;17.77;9.52;;;-0.60;99.90;;;;;;480816;245;27527;-63
2022/12/11 10:07:22;;;;;;;18.85;10.05;;;-0.50;99.90;;;;;;478583;245;27351;-65
2022/12/11 10:09:24;;;;;;;20.75;10.25;;;-0.50;99.90;;;;;;476803;246;28788;-62
2022/12/11 10:11:25;;;;;;;19.08;10.95;;;-0.50;99.90;;;;;;478285;246;29084;-63
2022/12/11 10:13:26;;;;;;;16.65;9.20;;;-0.50;99.90;;;;;;479091;246;27398;-65
2022/12/11 10:15:28;;;;;;;19.10;9.60;;;-0.40;99.90;;;;;;478984;245;27350;-63
2022/12/11 10:17:29;;;;;;;18.85;9.68;;;-0.40;99.90;;;;;;478536;244;27409;-63
2022/12/11 10:19:30;;;;;;;21.58;10.93;;;-0.40;99.90;;;;;;474096;246;27613;-63
2022/12/11 10:21:31;;;;;;;17.85;9.90;;;-0.30;99.90;;;;;;477694;249;27397;-64
2022/12/11 10:23:34;;;;;;;17.52;10.10;;;-0.30;99.90;;;;;;478213;245;27987;-65
2022/12/11 10:25:34;;;;;;;23.92;11.52;;;-0.30;99.90;;;;;;478175;246;27940;-64
2022/12/11 10:27:35;;;;;;;19.70;10.63;;;-0.30;99.90;;;;;;478164;246;27468;-64
2022/12/11 10:29:36;;;;;;;21.55;10.98;;;-0.30;99.90;;;;;;478191;246;27435;-64
2022/12/11 10:31:38;;;;;;;23.95;11.77;;;-0.30;99.90;;;;;;478181;246;27872;-64
2022/12/11 10:33:39;;;;;;;19.27;10.77;;;-0.30;99.90;;;;;;478214;246;29008;-65
2022/12/11 10:35:40;;;;;;;22.23;12.35;;;-0.30;99.90;;;;;;478238;246;27479;-64
2022/12/11 10:37:41;;;;;;;16.77;9.52;;;-0.30;99.90;;;;;;478175;246;27884;-64